Time;durP1;ratioP1;P1;durP2;ratioP2;P2;SDS_P1;SDS_P2;PMS_P1;PMS_P2;Temp;Humidity;BMP_temperature;BMP_pressure;BME280_temperature;BME280_humidity;BME280_pressure;Samples;Min_cycle;Max_cycle;Signal;HPM_P1;HPM_P2
2022/04/22 00:01:17;;;;;;;16.00;7.03;;;11.30;99.90;;;;;;5014133;28;20037;-67
2022/04/22 00:03:43;;;;;;;13.98;7.68;;;11.30;99.90;;;;;;5013051;28;20542;-67
2022/04/22 00:06:09;;;;;;;12.13;7.35;;;11.30;99.90;;;;;;5014109;28;20053;-67
2022/04/22 00:08:35;;;;;;;11.13;7.43;;;11.20;99.90;;;;;;5014130;28;20042;-67
2022/04/22 00:13:45;;;;;;;11.93;7.20;;;11.10;99.90;;;;;;5014259;28;20046;-67
2022/04/22 00:16:11;;;;;;;14.32;8.43;;;11.10;99.90;;;;;;5013919;28;20488;-67
2022/04/22 00:18:37;;;;;;;12.65;8.10;;;11.10;99.90;;;;;;5012946;28;20099;-67
2022/04/22 00:21:03;;;;;;;15.48;7.57;;;11.00;99.90;;;;;;5013593;28;20048;-67
2022/04/22 00:23:29;;;;;;;14.65;8.52;;;11.00;99.90;;;;;;5014022;28;20041;-67
2022/04/22 00:25:55;;;;;;;15.18;7.40;;;10.90;99.90;;;;;;5013789;28;20046;-67
2022/04/22 00:28:21;;;;;;;11.48;8.02;;;10.90;99.90;;;;;;5013942;28;20120;-67
2022/04/22 00:30:47;;;;;;;9.77;7.50;;;10.90;99.90;;;;;;5013506;28;20038;-67
2022/04/22 00:33:14;;;;;;;15.45;7.82;;;10.80;99.90;;;;;;5012402;28;20504;-67
2022/04/22 00:35:40;;;;;;;16.48;8.88;;;10.70;99.90;;;;;;5013284;28;20088;-67
2022/04/22 00:38:06;;;;;;;10.43;7.03;;;10.70;99.90;;;;;;5013575;28;20526;-67
2022/04/22 00:40:32;;;;;;;16.08;8.55;;;10.70;99.90;;;;;;5011960;28;20038;-67
2022/04/22 00:42:58;;;;;;;15.05;7.65;;;10.60;99.90;;;;;;5013416;28;20064;-67
2022/04/22 00:45:23;;;;;;;12.70;8.00;;;10.60;99.90;;;;;;5013355;28;20120;-67
2022/04/22 00:47:49;;;;;;;16.42;7.18;;;10.60;99.90;;;;;;5013342;28;20096;-67
2022/04/22 00:50:14;;;;;;;15.82;8.38;;;10.60;99.90;;;;;;5013325;28;20616;-67
2022/04/22 00:52:41;;;;;;;11.52;7.50;;;10.60;99.90;;;;;;5013511;28;20423;-67
2022/04/22 00:55:08;;;;;;;11.77;7.63;;;10.60;99.90;;;;;;4995597;28;20419;-67
2022/04/22 00:57:34;;;;;;;13.07;8.02;;;10.50;99.90;;;;;;5012189;28;20042;-67
2022/04/22 01:00:02;;;;;;;14.10;7.05;;;10.40;99.90;;;;;;5013003;28;20251;-67
2022/04/22 01:02:28;;;;;;;14.55;8.23;;;10.40;99.90;;;;;;5013056;28;20033;-67
2022/04/22 01:10:22;;;;;;;11.23;6.95;;;10.30;99.90;;;;;;5012805;28;20048;-67
2022/04/22 01:12:48;;;;;;;15.50;7.80;;;10.30;99.90;;;;;;5012975;28;20392;-67
2022/04/22 01:15:13;;;;;;;12.40;7.45;;;10.30;99.90;;;;;;5012731;28;20037;-67
2022/04/22 01:17:39;;;;;;;11.43;8.30;;;10.40;99.90;;;;;;5013047;28;20041;-67
2022/04/22 01:20:06;;;;;;;15.10;7.95;;;10.30;99.90;;;;;;5012549;28;20038;-67
2022/04/22 01:22:31;;;;;;;12.60;7.38;;;10.20;99.90;;;;;;5012589;28;20066;-67
2022/04/22 01:25:00;;;;;;;11.80;8.38;;;10.20;99.90;;;;;;5012723;28;20066;-67
2022/04/22 01:27:29;;;;;;;12.95;7.55;;;10.30;99.90;;;;;;5012684;28;20077;-67
2022/04/22 01:30:00;;;;;;;13.93;8.35;;;10.20;99.90;;;;;;5011189;28;20095;-67
2022/04/22 01:32:27;;;;;;;17.75;8.48;;;10.10;99.90;;;;;;5012817;28;20073;-67
2022/04/22 01:34:53;;;;;;;15.13;8.13;;;10.10;99.90;;;;;;5012334;28;20044;-67
2022/04/22 01:37:18;;;;;;;15.50;8.25;;;10.10;99.90;;;;;;5012511;28;20435;-67
2022/04/22 01:39:44;;;;;;;12.98;7.40;;;10.00;99.90;;;;;;5012535;28;20121;-67
2022/04/22 01:42:10;;;;;;;11.63;7.70;;;10.00;99.90;;;;;;5012118;28;20034;-67
2022/04/22 01:44:38;;;;;;;18.83;7.15;;;10.00;99.90;;;;;;5012628;28;20065;-67
2022/04/22 01:47:04;;;;;;;12.77;7.25;;;9.90;99.90;;;;;;5011242;28;20129;-68
2022/04/22 01:49:30;;;;;;;11.57;6.25;;;10.00;99.90;;;;;;5012457;28;20486;-67
2022/04/22 01:51:56;;;;;;;12.73;7.10;;;9.90;99.90;;;;;;5012129;28;20096;-68
2022/04/22 01:54:21;;;;;;;12.85;6.82;;;9.90;99.90;;;;;;5011729;28;20061;-67
2022/04/22 01:56:47;;;;;;;12.10;6.85;;;9.90;99.90;;;;;;5012162;28;20085;-67
2022/04/22 01:59:13;;;;;;;13.82;7.15;;;9.90;99.90;;;;;;5012473;28;20038;-67
2022/04/22 02:01:38;;;;;;;10.15;6.22;;;9.90;99.90;;;;;;5012148;28;20578;-67
2022/04/22 02:04:04;;;;;;;11.32;5.85;;;9.90;99.90;;;;;;5012147;28;20042;-67
2022/04/22 02:06:30;;;;;;;9.20;5.75;;;9.90;99.90;;;;;;5012240;28;20042;-67
2022/04/22 02:08:55;;;;;;;11.50;6.35;;;9.90;99.90;;;;;;5012147;28;20049;-67
2022/04/22 02:11:21;;;;;;;14.02;5.57;;;9.90;99.90;;;;;;5011766;28;20395;-67
2022/04/22 02:13:47;;;;;;;9.57;6.15;;;9.90;99.90;;;;;;5012114;28;20399;-68
2022/04/22 02:16:12;;;;;;;9.90;5.78;;;9.90;99.90;;;;;;5012110;28;20104;-67
2022/04/22 02:18:41;;;;;;;10.45;6.00;;;9.90;99.90;;;;;;5012043;28;20038;-67
2022/04/22 02:21:07;;;;;;;10.38;6.28;;;9.80;99.90;;;;;;5011655;28;20511;-67
2022/04/22 02:23:34;;;;;;;8.77;5.57;;;9.70;99.90;;;;;;5011972;28;20061;-67
2022/04/22 02:26:00;;;;;;;15.38;6.07;;;9.70;99.90;;;;;;5012068;28;20045;-67
2022/04/22 02:28:33;;;;;;;9.38;5.32;;;9.60;99.90;;;;;;5010655;28;20484;-67
2022/04/22 02:31:06;;;;;;;8.60;5.93;;;9.70;99.90;;;;;;5011850;28;20050;-67
2022/04/22 02:33:34;;;;;;;11.00;5.18;;;9.70;99.90;;;;;;5011918;28;20276;-67
2022/04/22 02:36:00;;;;;;;11.43;5.22;;;9.60;99.90;;;;;;5010331;28;20080;-68
2022/04/22 02:38:29;;;;;;;8.98;5.32;;;9.60;99.90;;;;;;5011777;28;20041;-67
2022/04/22 02:46:24;;;;;;;9.85;6.15;;;9.60;99.90;;;;;;5011785;28;20435;-67
2022/04/22 02:48:51;;;;;;;8.48;5.70;;;9.60;99.90;;;;;;5011714;28;20099;-67
2022/04/22 02:51:17;;;;;;;11.10;6.25;;;9.50;99.90;;;;;;5011554;28;20109;-67
2022/04/22 02:53:43;;;;;;;12.65;5.90;;;9.50;99.90;;;;;;5011899;28;20482;-67
2022/04/22 02:56:09;;;;;;;9.23;5.63;;;9.40;99.90;;;;;;5011717;28;20099;-67
2022/04/22 02:58:36;;;;;;;10.48;6.30;;;9.50;99.90;;;;;;5011679;28;20046;-67
2022/04/22 03:01:02;;;;;;;10.73;5.85;;;9.40;99.90;;;;;;5011376;28;20042;-67
2022/04/22 03:03:28;;;;;;;10.18;5.90;;;9.40;99.90;;;;;;5011620;28;20038;-67
2022/04/22 03:05:54;;;;;;;13.77;6.50;;;9.30;99.90;;;;;;5010282;28;20196;-67
2022/04/22 03:08:19;;;;;;;11.70;6.22;;;9.40;99.90;;;;;;5015316;28;20052;-67
2022/04/22 03:10:47;;;;;;;10.75;5.97;;;9.30;99.90;;;;;;5015126;28;20479;-67
2022/04/22 03:13:13;;;;;;;9.32;6.28;;;9.30;99.90;;;;;;5015274;28;20050;-67
2022/04/22 03:15:39;;;;;;;12.45;6.43;;;9.30;99.90;;;;;;5015013;28;20042;-67
2022/04/22 03:18:05;;;;;;;8.95;5.32;;;9.30;99.90;;;;;;5015086;28;20052;-67
2022/04/22 03:20:30;;;;;;;11.02;5.55;;;9.20;99.90;;;;;;5013541;28;20121;-67
2022/04/22 03:22:56;;;;;;;10.65;6.22;;;9.10;99.90;;;;;;5015189;28;20610;-67
2022/04/22 03:25:21;;;;;;;9.82;5.68;;;9.10;99.90;;;;;;5015069;28;20579;-67
2022/04/22 03:27:47;;;;;;;10.50;6.78;;;9.10;99.90;;;;;;5013692;28;20435;-67
2022/04/22 03:30:13;;;;;;;11.05;5.47;;;9.00;99.90;;;;;;5014531;28;20112;-67
2022/04/22 03:32:39;;;;;;;8.48;5.85;;;9.00;99.90;;;;;;5014790;28;20061;-67
2022/04/22 03:35:05;;;;;;;9.30;5.15;;;9.00;99.90;;;;;;5014585;28;20472;-67
2022/04/22 03:37:31;;;;;;;11.57;6.80;;;9.00;99.90;;;;;;5014835;28;20104;-67
2022/04/22 03:39:57;;;;;;;10.90;6.75;;;9.00;99.90;;;;;;5014413;28;20034;-67
2022/04/22 03:42:23;;;;;;;13.90;6.10;;;9.00;99.90;;;;;;4997132;28;20034;-67
2022/04/22 03:44:48;;;;;;;11.43;5.82;;;8.90;99.90;;;;;;5013574;28;20505;-67
2022/04/22 03:47:14;;;;;;;10.00;6.88;;;9.00;99.90;;;;;;5014006;28;20096;-67
2022/04/22 03:49:39;;;;;;;10.05;5.75;;;9.00;99.90;;;;;;5014425;28;20072;-67
2022/04/22 03:52:05;;;;;;;9.48;5.30;;;8.90;99.90;;;;;;5014208;28;20042;-67
2022/04/22 03:54:31;;;;;;;8.25;5.78;;;8.90;99.90;;;;;;5014380;28;20057;-67
2022/04/22 03:59:40;;;;;;;9.38;6.32;;;8.90;99.90;;;;;;5014189;28;20053;-67
2022/04/22 04:02:07;;;;;;;10.52;5.75;;;9.00;99.90;;;;;;5014109;28;20385;-67
2022/04/22 04:04:33;;;;;;;12.85;6.68;;;8.90;99.90;;;;;;5014278;28;20034;-67
2022/04/22 04:06:59;;;;;;;10.60;5.70;;;8.80;99.90;;;;;;5014379;28;20561;-67
2022/04/22 04:17:40;;;;;;;7.63;5.10;;;8.70;99.90;;;;;;5013626;28;20443;-67
2022/04/22 04:23:16;;;;;;;8.38;5.85;;;8.60;99.90;;;;;;5013970;28;20053;-68
2022/04/22 04:25:48;;;;;;;13.45;6.20;;;8.60;99.90;;;;;;5012580;28;20137;-68
2022/04/22 04:28:15;;;;;;;11.77;5.47;;;8.60;99.90;;;;;;5013871;28;20040;-68
2022/04/22 04:30:41;;;;;;;10.30;5.75;;;8.50;99.90;;;;;;5013415;28;20056;-68
2022/04/22 04:33:08;;;;;;;11.80;6.28;;;8.50;99.90;;;;;;5013875;28;20056;-68
2022/04/22 04:35:35;;;;;;;9.48;5.38;;;8.50;99.90;;;;;;5042309;23;20042;-76
2022/04/22 04:38:01;;;;;;;10.48;5.75;;;8.50;99.90;;;;;;5013878;28;20289;-76
2022/04/22 04:40:27;;;;;;;11.45;6.60;;;8.40;99.90;;;;;;5029703;28;20487;-76
2022/04/22 04:42:53;;;;;;;10.70;6.20;;;8.40;99.90;;;;;;5029952;28;20048;-77
2022/04/22 04:45:20;;;;;;;9.43;5.80;;;8.40;99.90;;;;;;5030083;28;20145;-76
2022/04/22 04:47:45;;;;;;;10.55;6.32;;;8.40;99.90;;;;;;5031152;28;20610;-76
2022/04/22 04:50:12;;;;;;;10.82;5.70;;;8.40;99.90;;;;;;5029504;28;20037;-76
2022/04/22 04:52:38;;;;;;;9.57;5.60;;;8.40;99.90;;;;;;5030698;28;20107;-76
2022/04/22 04:55:08;;;;;;;10.13;5.00;;;8.30;99.90;;;;;;5031588;28;20034;-76
2022/04/22 04:57:34;;;;;;;8.23;5.18;;;8.40;99.90;;;;;;5031304;28;20155;-76
2022/04/22 04:59:59;;;;;;;8.50;5.82;;;8.40;99.90;;;;;;5031361;28;20176;-78
2022/04/22 05:02:25;;;;;;;9.23;5.22;;;8.50;99.90;;;;;;5031544;28;20049;-75
2022/04/22 05:04:51;;;;;;;10.30;5.93;;;8.70;99.90;;;;;;5031385;28;20044;-75
2022/04/22 05:07:17;;;;;;;7.35;4.72;;;8.80;99.90;;;;;;5015028;28;20091;-75
2022/04/22 05:09:43;;;;;;;7.65;4.97;;;8.80;99.90;;;;;;5031395;28;20069;-76
2022/04/22 05:12:10;;;;;;;7.13;5.07;;;9.00;99.90;;;;;;5031399;28;20507;-76
2022/04/22 05:14:36;;;;;;;9.02;4.93;;;9.10;99.90;;;;;;5031510;28;20412;-76
2022/04/22 05:17:02;;;;;;;11.77;4.65;;;9.20;99.90;;;;;;5031254;28;20033;-76
2022/04/22 05:19:27;;;;;;;7.18;4.47;;;9.30;99.90;;;;;;5014880;28;20049;-76
2022/04/22 05:21:55;;;;;;;8.02;4.32;;;9.40;99.90;;;;;;5032564;28;20100;-76
2022/04/22 05:24:21;;;;;;;7.60;4.38;;;9.50;99.90;;;;;;5031168;28;20212;-77
2022/04/22 05:26:46;;;;;;;10.43;4.65;;;9.40;99.90;;;;;;5031127;28;20152;-76
2022/04/22 05:34:40;;;;;;;5.25;4.10;;;9.80;99.90;;;;;;5030913;28;20056;-76
2022/04/22 05:37:05;;;;;;;7.07;4.18;;;10.00;99.90;;;;;;5030779;28;20033;-76
2022/04/22 05:39:31;;;;;;;8.35;4.03;;;10.00;99.90;;;;;;5014403;28;20041;-76
2022/04/22 05:41:58;;;;;;;7.53;3.92;;;10.00;99.90;;;;;;5031865;28;20120;-76
2022/04/22 05:44:24;;;;;;;4.63;3.45;;;9.90;99.90;;;;;;5014522;28;20144;-76
2022/04/22 05:46:50;;;;;;;6.18;4.22;;;10.20;99.90;;;;;;5030664;28;20128;-75
2022/04/22 05:49:15;;;;;;;5.97;3.47;;;10.40;99.90;;;;;;5014255;28;20052;-76
2022/04/22 05:51:41;;;;;;;6.22;3.80;;;10.40;99.90;;;;;;5030289;28;20044;-76
2022/04/22 05:54:06;;;;;;;4.85;3.53;;;10.30;99.90;;;;;;5030660;28;20140;-76
2022/04/22 05:56:32;;;;;;;6.13;3.90;;;10.40;99.90;;;;;;5030417;28;20128;-76
2022/04/22 05:58:59;;;;;;;7.18;3.63;;;10.40;99.90;;;;;;5030992;28;20045;-76
2022/04/22 06:01:24;;;;;;;7.30;3.30;;;10.70;99.90;;;;;;5013803;28;20042;-76
2022/04/22 06:03:50;;;;;;;8.57;4.03;;;10.80;99.90;;;;;;5030989;28;20133;-76
2022/04/22 06:06:15;;;;;;;5.50;3.30;;;10.90;99.90;;;;;;5030510;28;20487;-76
2022/04/22 06:11:25;;;;;;;5.55;3.20;;;11.20;99.40;;;;;;5030354;28;20495;-76
2022/04/22 06:13:50;;;;;;;6.72;3.05;;;11.10;99.60;;;;;;5030605;28;20120;-76
2022/04/22 06:16:16;;;;;;;5.30;3.13;;;11.30;99.00;;;;;;5031788;28;20053;-76
2022/04/22 06:18:41;;;;;;;3.72;2.53;;;11.40;98.20;;;;;;5030501;28;20388;-77
2022/04/22 06:21:07;;;;;;;6.50;3.13;;;11.40;97.70;;;;;;5030649;28;20529;-77
2022/04/22 06:23:34;;;;;;;4.72;3.33;;;11.40;96.90;;;;;;5030708;28;20585;-76
2022/04/22 06:26:00;;;;;;;3.40;2.60;;;11.40;96.10;;;;;;5013666;28;20046;-76
2022/04/22 06:28:25;;;;;;;9.50;3.33;;;11.40;96.20;;;;;;5014376;28;20452;-74
2022/04/22 06:30:51;;;;;;;5.78;2.88;;;11.40;97.00;;;;;;5031485;28;20067;-76
2022/04/22 06:33:18;;;;;;;5.20;2.60;;;11.60;96.10;;;;;;5031132;28;20051;-74
2022/04/22 06:35:44;;;;;;;7.82;3.00;;;11.60;95.60;;;;;;5031140;28;20049;-75
2022/04/22 06:38:14;;;;;;;5.47;2.58;;;11.80;95.60;;;;;;5030475;28;20045;-74
2022/04/22 06:46:09;;;;;;;5.72;2.95;;;12.10;91.50;;;;;;5034453;28;20045;-75
2022/04/22 06:48:35;;;;;;;5.90;2.67;;;12.00;91.70;;;;;;5017149;28;20045;-74
2022/04/22 06:51:06;;;;;;;5.50;3.00;;;12.20;91.00;;;;;;5034277;28;20083;-75
2022/04/22 06:53:32;;;;;;;4.15;2.42;;;12.10;90.80;;;;;;5035605;28;20037;-75
2022/04/22 06:56:02;;;;;;;6.28;3.03;;;12.00;90.10;;;;;;5035464;28;20411;-75
2022/04/22 06:58:30;;;;;;;4.10;2.55;;;12.00;90.60;;;;;;5033937;28;20491;-75
2022/04/22 07:00:56;;;;;;;5.57;2.88;;;12.20;91.00;;;;;;5033624;28;20180;-73
2022/04/22 07:03:22;;;;;;;7.35;2.88;;;12.20;89.80;;;;;;5033882;28;20037;-75
2022/04/22 07:05:49;;;;;;;5.35;2.70;;;12.40;88.60;;;;;;5035125;28;20045;-74
2022/04/22 07:08:17;;;;;;;4.30;3.17;;;12.40;88.60;;;;;;5033807;28;20128;-74
2022/04/22 07:10:48;;;;;;;5.20;3.03;;;12.30;87.60;;;;;;5034794;28;20088;-75
2022/04/22 07:13:16;;;;;;;4.43;2.80;;;12.40;87.70;;;;;;5033654;28;20125;-75
2022/04/22 07:15:44;;;;;;;7.07;3.25;;;12.40;87.30;;;;;;5033459;28;20045;-75
2022/04/22 07:18:10;;;;;;;5.32;2.92;;;12.50;86.50;;;;;;5017029;28;20045;-75
2022/04/22 07:20:36;;;;;;;6.47;2.88;;;12.60;86.40;;;;;;5016886;28;20040;-75
2022/04/22 07:23:02;;;;;;;8.20;3.22;;;12.70;85.70;;;;;;5033871;28;20133;-74
2022/04/22 07:25:28;;;;;;;4.13;2.85;;;12.70;84.60;;;;;;5033789;28;20132;-74
2022/04/22 07:27:55;;;;;;;4.97;2.80;;;12.90;84.10;;;;;;5033378;28;20041;-74
2022/04/22 07:30:22;;;;;;;8.02;3.45;;;12.90;84.90;;;;;;5032990;28;20187;-73
2022/04/22 07:32:49;;;;;;;6.28;2.72;;;12.90;85.10;;;;;;5034490;28;20060;-74
2022/04/22 07:35:19;;;;;;;4.38;3.53;;;12.90;84.60;;;;;;5033039;28;20045;-74
2022/04/22 07:37:50;;;;;;;5.88;2.92;;;12.80;83.70;;;;;;5016828;28;20487;-74
2022/04/22 07:40:19;;;;;;;5.57;2.65;;;12.80;84.00;;;;;;5033195;28;20080;-75
2022/04/22 07:48:23;;;;;;;4.25;3.20;;;13.10;82.60;;;;;;5033050;28;20045;-74
2022/04/22 07:50:49;;;;;;;6.63;3.30;;;13.10;82.20;;;;;;5032765;28;20563;-75
2022/04/22 07:53:16;;;;;;;4.72;2.80;;;13.30;82.10;;;;;;5032093;28;20487;-74
2022/04/22 07:55:42;;;;;;;3.65;2.70;;;13.20;80.80;;;;;;5032664;28;20092;-73
2022/04/22 07:58:10;;;;;;;6.53;3.20;;;13.60;79.70;;;;;;5032754;28;20487;-73
2022/04/22 08:00:38;;;;;;;6.30;3.13;;;13.50;77.20;;;;;;5016056;28;20068;-73
2022/04/22 08:03:04;;;;;;;6.35;2.97;;;13.50;77.80;;;;;;5032715;28;20033;-73
2022/04/22 08:05:30;;;;;;;4.18;2.53;;;13.50;77.20;;;;;;5032642;28;20053;-73
2022/04/22 08:07:56;;;;;;;8.48;3.55;;;13.70;76.60;;;;;;5016252;28;20041;-74
2022/04/22 08:10:22;;;;;;;7.07;3.20;;;13.80;75.80;;;;;;5032355;28;20099;-74
2022/04/22 08:12:47;;;;;;;3.72;2.72;;;13.70;73.50;;;;;;5032821;28;20504;-73
2022/04/22 08:15:13;;;;;;;4.40;2.55;;;13.80;73.70;;;;;;5032447;28;20103;-75
2022/04/22 08:17:39;;;;;;;5.47;3.30;;;13.90;73.20;;;;;;5032647;28;20419;-74
2022/04/22 08:20:05;;;;;;;6.10;2.90;;;13.70;72.70;;;;;;5032500;28;20037;-74
2022/04/22 08:22:31;;;;;;;4.78;2.80;;;14.10;73.00;;;;;;5032585;28;20045;-74
2022/04/22 08:24:57;;;;;;;8.27;2.80;;;14.50;72.60;;;;;;5032660;28;20132;-74
2022/04/22 08:27:24;;;;;;;5.43;2.90;;;14.30;71.30;;;;;;5032510;28;20128;-73
2022/04/22 08:29:49;;;;;;;4.43;2.92;;;14.50;69.40;;;;;;5032421;28;20052;-75
2022/04/22 08:32:15;;;;;;;7.28;2.70;;;14.30;67.80;;;;;;5033378;28;20034;-75
2022/04/22 08:34:40;;;;;;;4.55;2.60;;;14.30;68.20;;;;;;5032057;28;20479;-74
2022/04/22 08:37:06;;;;;;;8.18;2.72;;;14.60;68.20;;;;;;5032060;28;20041;-74
2022/04/22 08:39:32;;;;;;;5.07;2.72;;;14.60;67.80;;;;;;5032116;28;20141;-74
2022/04/22 08:42:00;;;;;;;5.13;2.70;;;14.50;66.60;;;;;;5031938;28;20048;-74
2022/04/22 08:44:27;;;;;;;7.03;2.83;;;14.60;66.30;;;;;;5032272;28;20048;-74
2022/04/22 08:52:24;;;;;;;4.78;2.38;;;15.00;66.50;;;;;;5033251;28;20542;-75
2022/04/22 08:54:52;;;;;;;5.95;3.13;;;14.90;64.30;;;;;;5031817;28;20037;-74
2022/04/22 08:57:20;;;;;;;6.40;3.05;;;14.80;64.80;;;;;;5031731;28;20561;-74
2022/04/22 08:59:46;;;;;;;5.05;2.92;;;14.90;64.50;;;;;;5031883;28;20128;-74
2022/04/22 09:02:16;;;;;;;4.95;2.90;;;14.90;65.60;;;;;;5031630;28;20133;-75
2022/04/22 09:04:42;;;;;;;5.30;2.72;;;15.00;64.50;;;;;;5032959;28;20049;-74
2022/04/22 09:07:13;;;;;;;4.38;2.90;;;15.20;64.70;;;;;;5033124;28;20042;-75
2022/04/22 09:09:40;;;;;;;6.03;2.90;;;15.10;64.90;;;;;;5031668;28;20041;-74
2022/04/22 09:12:13;;;;;;;4.03;2.63;;;15.00;63.70;;;;;;5015066;28;20048;-74
2022/04/22 09:14:44;;;;;;;5.25;2.70;;;15.10;62.70;;;;;;5015551;28;20517;-74
2022/04/22 09:17:15;;;;;;;6.72;3.33;;;15.10;62.50;;;;;;5031597;28;20072;-75
2022/04/22 09:19:45;;;;;;;5.70;2.70;;;15.10;63.10;;;;;;5032799;28;20129;-75
2022/04/22 09:22:16;;;;;;;5.28;2.67;;;15.20;63.60;;;;;;5031323;28;20490;-73
2022/04/22 09:24:50;;;;;;;5.20;2.80;;;15.10;61.40;;;;;;5031276;28;20078;-74
2022/04/22 09:27:17;;;;;;;6.85;2.72;;;15.00;62.00;;;;;;5031567;28;20045;-75
2022/04/22 09:29:55;;;;;;;4.95;2.60;;;15.20;62.10;;;;;;5031442;28;20046;-75
2022/04/22 09:32:28;;;;;;;3.97;2.92;;;15.30;62.20;;;;;;5031534;28;20044;-75
2022/04/22 09:35:10;;;;;;;3.80;2.75;;;15.40;62.40;;;;;;5031093;28;20041;-73
2022/04/22 09:43:35;;;;;;;6.35;2.80;;;15.30;61.50;;;;;;5032162;28;20166;-75
2022/04/22 09:46:02;;;;;;;5.63;2.60;;;15.40;61.30;;;;;;5023128;28;20065;-74
2022/04/22 09:48:44;;;;;;;9.82;3.30;;;15.70;61.20;;;;;;5030940;28;20641;-75
2022/04/22 09:51:24;;;;;;;7.07;2.90;;;15.50;59.70;;;;;;5031774;28;20472;-75
2022/04/22 09:54:02;;;;;;;5.22;3.10;;;15.50;60.30;;;;;;5032248;28;20085;-74
2022/04/22 09:56:28;;;;;;;4.07;3.22;;;15.60;61.20;;;;;;5030526;28;20179;-75
2022/04/22 09:58:53;;;;;;;4.15;3.20;;;15.60;60.70;;;;;;5031160;28;20045;-74
2022/04/22 10:01:19;;;;;;;6.63;2.92;;;15.50;60.30;;;;;;5030591;28;20707;-75
2022/04/22 10:03:45;;;;;;;6.03;3.28;;;15.40;59.60;;;;;;5014713;28;20452;-75
2022/04/22 10:06:12;;;;;;;6.22;3.17;;;15.30;59.50;;;;;;5025605;28;20100;-72
2022/04/22 10:08:39;;;;;;;5.97;3.10;;;15.30;59.70;;;;;;5027722;28;20068;-73
2022/04/22 10:11:06;;;;;;;4.30;3.22;;;15.30;59.70;;;;;;5013958;28;20091;-73
2022/04/22 10:13:39;;;;;;;7.22;3.20;;;15.30;60.50;;;;;;5030409;28;20095;-73
2022/04/22 10:16:05;;;;;;;;;;;15.30;60.80;;;;;;5030329;28;20087;-73
2022/04/22 10:18:32;;;;;;;7.60;3.85;;;15.30;61.80;;;;;;5030635;28;19975;-72
2022/04/22 10:20:58;;;;;;;5.60;3.42;;;15.30;62.00;;;;;;5030380;28;20042;-73
2022/04/22 10:23:24;;;;;;;6.47;3.85;;;15.20;62.50;;;;;;5030476;28;20541;-73
2022/04/22 10:25:50;;;;;;;5.78;3.28;;;15.30;62.40;;;;;;5030523;28;20203;-73
2022/04/22 10:28:16;;;;;;;6.30;3.58;;;15.40;62.80;;;;;;5030397;28;20725;-73
2022/04/22 10:30:43;;;;;;;6.38;3.53;;;15.30;63.10;;;;;;5030279;28;20096;-73
2022/04/22 10:33:10;;;;;;;7.53;3.30;;;15.30;63.00;;;;;;5030261;28;20041;-73
2022/04/22 10:35:40;;;;;;;4.95;3.50;;;15.40;62.20;;;;;;5052879;22;20045;-70
2022/04/22 10:38:28;;;;;;;6.63;3.95;;;15.50;62.20;;;;;;5031352;28;20045;-70
2022/04/22 10:40:54;;;;;;;6.95;3.25;;;15.60;61.90;;;;;;5031632;28;20034;-70
2022/04/22 10:43:21;;;;;;;5.43;3.60;;;15.50;61.70;;;;;;5031509;28;20041;-70
2022/04/22 10:48:31;;;;;;;5.32;3.83;;;15.50;62.30;;;;;;5030570;28;20041;-70
2022/04/22 10:51:01;;;;;;;5.28;3.72;;;15.40;62.30;;;;;;5031285;28;20046;-70
2022/04/22 10:53:28;;;;;;;6.03;3.65;;;15.50;62.20;;;;;;5031548;28;20229;-70
2022/04/22 10:56:26;;;;;;;9.30;3.83;;;15.40;62.40;;;;;;5030021;28;20038;-70
2022/04/22 10:59:16;;;;;;;8.15;4.00;;;15.70;63.10;;;;;;5031392;28;20045;-70
2022/04/22 11:01:43;;;;;;;6.20;3.70;;;15.60;63.30;;;;;;5029874;28;20041;-70
2022/04/22 11:04:28;;;;;;;5.35;3.25;;;15.50;63.80;;;;;;5031848;28;20045;-70
2022/04/22 11:06:57;;;;;;;5.22;3.60;;;15.50;63.30;;;;;;5030622;28;20040;-70
2022/04/22 11:09:29;;;;;;;8.48;3.72;;;15.70;64.00;;;;;;5031432;28;20041;-71
2022/04/22 11:11:56;;;;;;;6.50;3.53;;;15.70;62.80;;;;;;5030117;28;20477;-71
2022/04/22 11:14:24;;;;;;;5.50;4.43;;;15.70;61.70;;;;;;5031272;28;20048;-71
2022/04/22 11:16:50;;;;;;;5.75;3.03;;;15.80;60.10;;;;;;5030871;28;20041;-71
2022/04/22 11:19:19;;;;;;;7.82;3.90;;;15.80;59.50;;;;;;5031326;28;20060;-71
2022/04/22 11:21:46;;;;;;;5.63;3.80;;;15.70;59.00;;;;;;5030967;28;20034;-72
2022/04/22 11:24:32;;;;;;;6.28;3.75;;;15.90;59.30;;;;;;5031200;28;20118;-71
2022/04/22 11:27:11;;;;;;;10.43;5.55;;;15.80;59.80;;;;;;5031102;28;20073;-71
2022/04/22 11:29:37;;;;;;;6.60;3.92;;;15.90;59.80;;;;;;5033833;28;20037;-71
2022/04/22 11:32:11;;;;;;;7.25;4.40;;;16.10;60.40;;;;;;5034588;28;20038;-70
2022/04/22 11:34:55;;;;;;;5.53;3.88;;;16.10;60.70;;;;;;5034761;28;20052;-70
2022/04/22 11:37:22;;;;;;;6.40;4.03;;;16.10;61.00;;;;;;5035313;28;20092;-70
2022/04/22 11:39:48;;;;;;;10.25;4.22;;;16.10;59.70;;;;;;5034369;28;20080;-70
2022/04/22 11:42:17;;;;;;;8.35;3.85;;;16.10;60.40;;;;;;5034392;28;20052;-70
2022/04/22 11:44:44;;;;;;;5.10;4.57;;;16.20;61.30;;;;;;5034462;28;20038;-70
2022/04/22 11:47:09;;;;;;;14.80;4.65;;;16.20;60.40;;;;;;5032994;28;20423;-70
2022/04/22 11:49:38;;;;;;;11.32;4.28;;;16.20;59.70;;;;;;5034340;28;20037;-71
2022/04/22 11:52:04;;;;;;;8.38;3.50;;;16.30;60.10;;;;;;5033960;28;20056;-70
2022/04/22 11:54:29;;;;;;;5.75;4.03;;;16.40;60.20;;;;;;5016631;28;20041;-70
2022/04/22 11:56:55;;;;;;;5.65;3.67;;;16.40;60.10;;;;;;5034365;28;20605;-70
2022/04/22 11:59:24;;;;;;;5.28;4.28;;;16.50;59.10;;;;;;5034313;28;20104;-70
2022/04/22 12:10:06;;;;;;;6.32;4.30;;;16.50;58.10;;;;;;5034910;28;20045;-70
2022/04/22 12:12:32;;;;;;;8.23;4.18;;;16.60;58.60;;;;;;5035422;28;20057;-70
2022/04/22 12:15:02;;;;;;;6.50;4.10;;;16.60;59.00;;;;;;5037255;28;20042;-70
2022/04/22 12:17:29;;;;;;;6.82;4.35;;;16.80;60.00;;;;;;5035508;28;20076;-70
2022/04/22 12:19:55;;;;;;;8.00;4.63;;;16.80;59.00;;;;;;5034023;28;20477;-71
2022/04/22 12:22:25;;;;;;;7.68;5.00;;;16.80;58.40;;;;;;5037951;28;20049;-71
2022/04/22 12:25:09;;;;;;;7.93;3.97;;;16.70;58.80;;;;;;5033007;28;20104;-70
2022/04/22 12:27:37;;;;;;;6.68;4.22;;;16.80;59.70;;;;;;5033443;28;20049;-70
2022/04/22 12:30:11;;;;;;;7.05;4.65;;;16.80;59.20;;;;;;5035017;28;20067;-71
2022/04/22 12:32:38;;;;;;;9.80;4.47;;;16.90;59.80;;;;;;5032760;28;20049;-71
2022/04/22 12:35:14;;;;;;;8.38;4.50;;;16.80;59.80;;;;;;5032426;28;20049;-70
2022/04/22 12:37:43;;;;;;;10.75;4.78;;;16.80;59.00;;;;;;5034374;28;20087;-71
2022/04/22 12:40:10;;;;;;;7.47;4.65;;;17.00;59.90;;;;;;5034055;28;20539;-71
2022/04/22 12:42:36;;;;;;;7.82;4.47;;;17.10;59.40;;;;;;5033719;28;20049;-71
2022/04/22 12:53:48;;;;;;;7.88;4.57;;;17.10;59.10;;;;;;5045124;28;20418;-71
2022/04/22 12:56:13;;;;;;;5.93;4.40;;;17.40;59.60;;;;;;5042185;28;20095;-71
2022/04/22 12:58:57;;;;;;;9.25;5.80;;;17.50;58.70;;;;;;5043706;28;20475;-71
2022/04/22 13:01:35;;;;;;;10.45;5.70;;;17.40;58.50;;;;;;5042023;28;20045;-71
2022/04/22 13:04:01;;;;;;;7.03;5.47;;;17.30;58.70;;;;;;5033426;28;20139;-71
2022/04/22 13:06:47;;;;;;;8.07;4.82;;;17.30;58.80;;;;;;5033010;28;20045;-71
2022/04/22 13:09:15;;;;;;;10.40;4.93;;;17.30;57.80;;;;;;5031954;28;20120;-71
2022/04/22 13:11:42;;;;;;;8.80;6.18;;;17.50;58.50;;;;;;5032789;28;20050;-71
2022/04/22 13:14:08;;;;;;;8.63;5.43;;;17.50;60.00;;;;;;5031628;28;20049;-71
2022/04/22 13:16:34;;;;;;;9.85;6.55;;;17.50;59.80;;;;;;5032709;28;20044;-71
2022/04/22 13:19:04;;;;;;;12.50;5.25;;;17.70;60.00;;;;;;5031650;28;20049;-71
2022/04/22 13:21:30;;;;;;;10.02;5.85;;;17.70;59.20;;;;;;5032323;28;20128;-71
2022/04/22 13:23:56;;;;;;;9.57;5.35;;;17.70;59.20;;;;;;5031651;28;20049;-71
2022/04/22 13:26:23;;;;;;;8.15;4.20;;;17.70;59.00;;;;;;5032635;28;20049;-71
2022/04/22 13:28:49;;;;;;;9.65;5.18;;;17.90;59.40;;;;;;5031212;28;20052;-71
2022/04/22 13:31:16;;;;;;;8.70;5.50;;;18.20;59.60;;;;;;5030921;28;20403;-71
2022/04/22 13:33:41;;;;;;;6.22;4.80;;;18.20;57.80;;;;;;5032550;28;20129;-71
2022/04/22 13:36:10;;;;;;;11.38;5.35;;;18.20;55.30;;;;;;5032044;28;20124;-71
2022/04/22 13:38:37;;;;;;;9.27;5.60;;;18.20;54.90;;;;;;5032473;28;20048;-71
2022/04/22 13:41:04;;;;;;;8.82;5.40;;;18.20;54.70;;;;;;5030456;28;20037;-67
2022/04/22 13:43:30;;;;;;;8.38;5.40;;;18.50;53.90;;;;;;5030041;28;20049;-68
2022/04/22 13:54:14;;;;;;;7.28;4.60;;;18.90;51.40;;;;;;5031904;28;20053;-68
2022/04/22 13:56:39;;;;;;;8.65;4.82;;;19.00;51.00;;;;;;5021143;28;20035;-68
2022/04/22 13:59:05;;;;;;;8.35;5.05;;;18.90;51.00;;;;;;5017509;28;20060;-68
2022/04/22 14:01:31;;;;;;;8.43;5.20;;;19.00;51.70;;;;;;5015126;28;20096;-68
2022/04/22 14:03:56;;;;;;;11.77;5.57;;;18.80;51.50;;;;;;5031579;28;20037;-68
2022/04/22 14:06:22;;;;;;;8.52;5.18;;;18.70;51.30;;;;;;5030383;28;20043;-68
2022/04/22 14:08:48;;;;;;;7.50;4.95;;;18.80;51.90;;;;;;5031618;28;20040;-68
2022/04/22 14:11:14;;;;;;;8.38;5.15;;;18.90;51.50;;;;;;5030839;28;20041;-68
2022/04/22 14:13:40;;;;;;;12.50;5.18;;;19.00;51.40;;;;;;5020374;28;20034;-68